createdAt,value
2018-06-30T00:01:49.920Z,7.27
2018-06-30T00:04:20.188Z,6.80
2018-06-30T00:06:50.180Z,7.43
2018-06-30T00:09:20.353Z,7.40
2018-06-30T00:11:50.556Z,7.87
2018-06-30T00:14:20.603Z,7.57
2018-06-30T00:16:50.490Z,7.40
2018-06-30T00:19:20.871Z,7.67
2018-06-30T00:21:51.385Z,7.57
2018-06-30T00:24:21.577Z,7.97
2018-06-30T00:26:55.610Z,8.27
2018-06-30T00:29:25.619Z,8.40
2018-06-30T00:31:55.533Z,7.70
2018-06-30T00:34:25.427Z,8.40
2018-06-30T00:36:55.444Z,8.63
2018-06-30T00:39:25.379Z,7.87
2018-06-30T00:41:55.604Z,8.30
2018-06-30T00:44:25.626Z,8.67
2018-06-30T00:46:55.776Z,8.53
2018-06-30T00:49:25.845Z,8.17
2018-06-30T00:51:55.725Z,8.10
2018-06-30T00:54:25.816Z,8.40
2018-06-30T00:56:55.812Z,8.03
2018-06-30T00:59:26.223Z,8.60
2018-06-30T01:01:56.188Z,8.17
2018-06-30T01:04:26.716Z,8.33
2018-06-30T01:06:57.176Z,8.03
2018-06-30T01:09:28.167Z,8.83
2018-06-30T01:11:58.143Z,8.90
2018-06-30T01:14:28.211Z,8.73
2018-06-30T01:16:58.385Z,9.23
2018-06-30T01:19:28.307Z,8.43
2018-06-30T01:21:58.311Z,8.80
2018-06-30T01:24:28.265Z,9.07
2018-06-30T01:26:58.620Z,8.20
2018-06-30T01:29:28.640Z,9.20
2018-06-30T01:31:58.619Z,8.43
2018-06-30T01:34:28.582Z,9.43
2018-06-30T01:36:58.493Z,9.37
2018-06-30T01:39:28.479Z,8.27
2018-06-30T01:41:58.374Z,9.30
2018-06-30T01:44:28.483Z,9.00
2018-06-30T01:46:58.907Z,9.50
2018-06-30T01:49:28.969Z,9.90
2018-06-30T01:51:58.936Z,9.90
2018-06-30T01:54:29.085Z,9.73
2018-06-30T01:56:58.985Z,10.10
2018-06-30T01:59:28.861Z,10.33
2018-06-30T02:01:59.196Z,10.07
2018-06-30T02:04:29.107Z,10.10
2018-06-30T02:06:58.957Z,10.73
2018-06-30T02:09:29.032Z,10.67
2018-06-30T02:11:59.115Z,10.60
2018-06-30T02:14:29.144Z,10.43
2018-06-30T02:16:59.105Z,9.77
2018-06-30T02:19:29.001Z,11.03
2018-06-30T02:21:58.941Z,10.80
2018-06-30T02:24:28.784Z,10.20
2018-06-30T02:26:58.993Z,10.30
2018-06-30T02:29:28.925Z,10.73
2018-06-30T02:31:58.849Z,11.07
2018-06-30T02:34:28.745Z,11.17
2018-06-30T02:36:58.692Z,10.77
2018-06-30T02:39:28.672Z,10.53
2018-06-30T02:41:58.557Z,10.60
2018-06-30T02:44:28.440Z,10.50
2018-06-30T02:46:58.820Z,11.33
2018-06-30T02:49:28.743Z,10.83
2018-06-30T02:51:59.060Z,12.43
2018-06-30T02:54:29.057Z,11.63
2018-06-30T02:56:59.131Z,12.40
2018-06-30T02:59:29.533Z,12.37
2018-06-30T03:01:59.437Z,12.73
2018-06-30T03:04:29.549Z,12.93
2018-06-30T03:06:59.502Z,12.10
2018-06-30T03:09:29.467Z,12.63
2018-06-30T03:11:59.417Z,11.73
2018-06-30T03:14:29.762Z,12.00
2018-06-30T03:16:59.948Z,11.13
2018-06-30T03:19:30.269Z,11.87
2018-06-30T03:22:00.134Z,11.10
2018-06-30T03:24:30.168Z,11.40
2018-06-30T03:27:00.397Z,10.93
2018-06-30T03:29:30.284Z,10.73
2018-06-30T03:32:00.178Z,10.37
2018-06-30T03:34:30.056Z,10.40
2018-06-30T03:36:59.908Z,10.63
2018-06-30T03:39:29.730Z,9.50
2018-06-30T03:41:59.607Z,9.80
2018-06-30T03:44:29.777Z,9.30
2018-06-30T03:46:59.900Z,9.23
2018-06-30T03:49:29.901Z,7.63
2018-06-30T03:51:59.789Z,7.60
2018-06-30T03:54:29.721Z,7.90
2018-06-30T03:56:59.633Z,8.40
2018-06-30T03:59:29.613Z,8.70
2018-06-30T04:01:59.786Z,10.23
2018-06-30T04:04:29.699Z,10.70
2018-06-30T04:06:59.649Z,10.30
2018-06-30T04:09:29.924Z,10.23
2018-06-30T04:11:59.893Z,9.60
2018-06-30T04:14:30.208Z,9.77
2018-06-30T04:17:00.117Z,9.57
2018-06-30T04:19:30.301Z,9.30
2018-06-30T04:22:00.146Z,9.70
2018-06-30T04:24:30.425Z,10.10
2018-06-30T04:27:00.492Z,10.20
2018-06-30T04:29:30.520Z,9.47
2018-06-30T04:32:00.480Z,10.40
2018-06-30T04:34:30.788Z,10.03
2018-06-30T04:37:00.841Z,9.90
2018-06-30T04:39:30.792Z,9.70
2018-06-30T04:42:00.785Z,10.23
2018-06-30T04:44:30.849Z,10.00
2018-06-30T04:47:00.940Z,10.07
2018-06-30T04:49:30.920Z,9.87
2018-06-30T04:52:01.014Z,9.30
2018-06-30T04:54:31.376Z,8.57
2018-06-30T04:57:01.351Z,9.43
2018-06-30T04:59:31.591Z,8.67
2018-06-30T05:02:01.677Z,9.03
2018-06-30T05:04:31.815Z,9.23
2018-06-30T05:07:01.732Z,9.80
2018-06-30T05:09:31.903Z,8.47
2018-06-30T05:12:02.776Z,8.50
2018-06-30T05:14:32.821Z,8.20
2018-06-30T05:17:02.910Z,9.07
2018-06-30T05:19:33.065Z,8.60
2018-06-30T05:22:03.080Z,9.03
2018-06-30T05:24:32.995Z,8.60
2018-06-30T05:27:03.369Z,8.80
2018-06-30T05:29:33.289Z,8.50
2018-06-30T05:32:03.191Z,8.67
2018-06-30T05:34:33.025Z,7.37
2018-06-30T05:37:02.956Z,7.93
2018-06-30T05:39:32.854Z,7.23
2018-06-30T05:42:02.845Z,7.63
2018-06-30T05:44:32.819Z,8.00
2018-06-30T05:47:02.935Z,8.37
2018-06-30T05:49:33.036Z,7.83
2018-06-30T05:52:02.928Z,8.10
2018-06-30T05:54:32.865Z,8.40
2018-06-30T05:57:02.912Z,8.40
2018-06-30T05:59:33.051Z,8.20
2018-06-30T06:02:03.259Z,8.27
2018-06-30T06:04:33.558Z,7.70
2018-06-30T06:07:03.938Z,7.90
2018-06-30T06:09:34.388Z,7.80
2018-06-30T06:12:04.431Z,6.87
2018-06-30T06:14:34.760Z,7.63
2018-06-30T06:17:04.971Z,9.07
2018-06-30T06:19:36.280Z,6.73
2018-06-30T06:22:07.533Z,7.40
2018-06-30T06:24:38.071Z,7.97
2018-06-30T06:27:08.319Z,6.63
2018-06-30T06:29:38.491Z,6.43
2018-06-30T06:32:09.076Z,7.20
2018-06-30T06:34:39.356Z,7.10
2018-06-30T06:37:09.699Z,7.57
2018-06-30T06:39:39.886Z,6.67
2018-06-30T06:42:10.168Z,6.63
2018-06-30T06:44:40.356Z,6.50
2018-06-30T06:47:11.059Z,5.47
2018-06-30T06:49:41.274Z,5.23
2018-06-30T06:52:11.819Z,5.33
2018-06-30T06:54:42.262Z,4.97
2018-06-30T06:57:12.536Z,4.30
2018-06-30T06:59:42.946Z,4.37
2018-06-30T07:02:13.220Z,4.93
2018-06-30T07:04:43.546Z,4.87
2018-06-30T07:07:14.190Z,4.80
2018-06-30T07:09:44.299Z,5.20
2018-06-30T07:12:14.512Z,5.83
2018-06-30T07:14:44.905Z,5.73
2018-06-30T07:17:15.072Z,5.00
2018-06-30T07:19:45.661Z,5.33
2018-06-30T07:22:15.968Z,5.23
2018-06-30T07:24:46.200Z,4.73
2018-06-30T07:27:16.705Z,4.93
2018-06-30T07:29:47.364Z,5.33
2018-06-30T07:32:17.676Z,5.00
2018-06-30T07:34:47.922Z,5.13
2018-06-30T07:37:18.189Z,5.10
2018-06-30T07:39:48.589Z,4.53
2018-06-30T07:42:18.960Z,4.50
2018-06-30T07:44:49.656Z,4.50
2018-06-30T07:47:20.409Z,3.80
2018-06-30T07:49:51.008Z,5.20
2018-06-30T07:52:21.220Z,7.37
2018-06-30T07:54:51.531Z,5.30
2018-06-30T07:57:21.676Z,4.83
2018-06-30T07:59:52.151Z,6.13
2018-06-30T08:02:22.302Z,5.67
2018-06-30T08:04:52.616Z,5.33
2018-06-30T08:07:22.828Z,5.90
2018-06-30T08:09:53.092Z,5.43
2018-06-30T08:12:23.268Z,5.50
2018-06-30T08:14:53.631Z,5.63
2018-06-30T08:17:23.908Z,5.03
2018-06-30T08:19:54.284Z,4.83
2018-06-30T08:22:24.507Z,4.87
2018-06-30T08:24:54.665Z,5.70
2018-06-30T08:27:25.089Z,14.93
2018-06-30T08:29:55.498Z,6.87
2018-06-30T08:32:25.825Z,6.90
2018-06-30T08:34:55.982Z,7.73
2018-06-30T08:37:26.290Z,7.33
2018-06-30T08:39:56.497Z,7.40
2018-06-30T08:42:26.814Z,7.77
2018-06-30T08:44:56.954Z,7.83
2018-06-30T08:47:27.480Z,7.87
2018-06-30T08:49:57.534Z,8.50
2018-06-30T08:52:27.665Z,8.67
2018-06-30T08:54:58.316Z,8.50
2018-06-30T08:57:28.377Z,8.83
2018-06-30T08:59:58.655Z,8.77
2018-06-30T09:02:28.794Z,9.37
2018-06-30T09:04:58.942Z,9.40
2018-06-30T09:07:29.204Z,10.03
2018-06-30T09:09:59.475Z,8.80
2018-06-30T09:12:29.830Z,8.70
2018-06-30T09:15:00.046Z,9.33
2018-06-30T09:17:30.575Z,9.83
2018-06-30T09:20:00.908Z,10.50
2018-06-30T09:22:31.257Z,9.40
2018-06-30T09:25:01.493Z,9.23
2018-06-30T09:27:31.861Z,9.20
2018-06-30T09:30:02.046Z,8.80
2018-06-30T09:32:32.503Z,10.10
2018-06-30T09:35:02.781Z,10.03
2018-06-30T09:37:33.449Z,10.03
2018-06-30T09:40:03.633Z,9.97
2018-06-30T09:42:39.480Z,9.90
2018-06-30T09:45:09.693Z,8.47
2018-06-30T09:47:40.259Z,8.67
2018-06-30T09:50:10.931Z,8.77
2018-06-30T09:52:41.325Z,8.73
2018-06-30T09:55:11.560Z,8.83
2018-06-30T09:57:42.094Z,8.40
2018-06-30T10:00:16.318Z,8.43
2018-06-30T10:02:46.792Z,12.20
2018-06-30T10:05:17.267Z,8.83
2018-06-30T10:07:47.992Z,8.23
2018-06-30T10:10:18.274Z,8.33
2018-06-30T10:12:48.879Z,7.40
2018-06-30T10:15:19.134Z,7.73
2018-06-30T10:17:49.611Z,7.60
2018-06-30T10:20:19.847Z,7.00
2018-06-30T10:22:50.229Z,8.30
2018-06-30T10:25:20.514Z,7.90
2018-06-30T10:27:50.793Z,8.47
2018-06-30T10:30:21.084Z,8.30
2018-06-30T10:32:51.425Z,8.00
2018-06-30T10:35:21.708Z,7.70
2018-06-30T10:37:52.136Z,7.73
2018-06-30T10:40:22.848Z,12.97
2018-06-30T10:42:53.091Z,8.17
2018-06-30T10:45:23.302Z,8.10
2018-06-30T10:47:53.651Z,8.37
2018-06-30T10:50:23.997Z,8.30
2018-06-30T10:52:54.612Z,9.23
2018-06-30T10:55:26.000Z,7.87
2018-06-30T10:57:56.496Z,8.73
2018-06-30T11:00:27.253Z,8.63
2018-06-30T11:02:57.393Z,7.40
2018-06-30T11:05:27.817Z,7.87
2018-06-30T11:07:57.856Z,7.77
2018-06-30T11:10:28.372Z,7.80
2018-06-30T11:12:58.800Z,7.50
2018-06-30T11:15:28.924Z,7.60
2018-06-30T11:17:59.188Z,7.03
2018-06-30T11:20:29.976Z,7.43
2018-06-30T11:23:00.139Z,7.70
2018-06-30T11:25:30.546Z,7.37
2018-06-30T11:28:00.835Z,6.83
2018-06-30T11:30:31.341Z,6.80
2018-06-30T11:33:01.647Z,6.93
2018-06-30T11:35:32.008Z,6.80
2018-06-30T11:38:02.328Z,6.43
2018-06-30T11:40:32.670Z,6.20
2018-06-30T11:43:03.007Z,5.97
2018-06-30T11:45:33.289Z,6.20
2018-06-30T11:48:03.940Z,5.97
2018-06-30T11:50:34.235Z,6.13
2018-06-30T11:53:04.645Z,6.03
2018-06-30T11:55:34.854Z,6.03
2018-06-30T11:58:05.108Z,5.10
2018-06-30T12:00:35.342Z,5.67
2018-06-30T12:03:06.022Z,5.57
2018-06-30T12:05:36.351Z,5.97
2018-06-30T12:08:06.758Z,5.97
2018-06-30T12:10:37.326Z,6.33
2018-06-30T12:13:07.666Z,6.30
2018-06-30T12:15:38.019Z,5.77
2018-06-30T12:18:08.609Z,6.33
2018-06-30T12:20:38.929Z,6.17
2018-06-30T12:23:09.147Z,6.10
2018-06-30T12:25:39.497Z,6.30
2018-06-30T12:28:09.714Z,6.60
2018-06-30T12:30:39.949Z,6.43
2018-06-30T12:33:10.126Z,5.70
2018-06-30T12:35:40.407Z,6.00
2018-06-30T12:38:10.598Z,6.10
2018-06-30T12:40:40.921Z,5.90
2018-06-30T12:43:11.060Z,6.57
2018-06-30T12:45:41.293Z,6.17
2018-06-30T12:48:11.889Z,6.90
2018-06-30T12:50:42.279Z,6.70
2018-06-30T12:53:12.523Z,7.20
2018-06-30T12:55:43.087Z,5.80
2018-06-30T12:58:13.493Z,6.80
2018-06-30T13:00:43.853Z,6.83
2018-06-30T13:03:13.991Z,6.97
2018-06-30T13:05:44.421Z,6.07
2018-06-30T13:08:15.135Z,6.67
2018-06-30T13:10:45.332Z,6.10
2018-06-30T13:13:15.623Z,6.03
2018-06-30T13:15:45.802Z,5.83
2018-06-30T13:18:16.251Z,5.37
2018-06-30T13:20:46.556Z,5.30
2018-06-30T13:23:17.232Z,5.17
2018-06-30T13:25:48.432Z,5.40
2018-06-30T13:28:18.888Z,5.63
2018-06-30T13:30:49.025Z,5.27
2018-06-30T13:33:19.313Z,5.50
2018-06-30T13:35:49.506Z,5.40
2018-06-30T13:38:19.985Z,5.17
2018-06-30T13:40:50.356Z,5.50
2018-06-30T13:43:20.799Z,5.47
2018-06-30T13:45:51.358Z,5.27
2018-06-30T13:48:22.220Z,5.43
2018-06-30T13:50:52.433Z,5.47
2018-06-30T13:53:22.936Z,5.70
2018-06-30T13:55:53.250Z,5.43
2018-06-30T13:58:23.437Z,5.60
2018-06-30T14:00:53.821Z,5.63
2018-06-30T14:03:24.137Z,5.27
2018-06-30T14:05:54.365Z,4.97
2018-06-30T14:08:24.441Z,5.60
2018-06-30T14:10:54.507Z,5.23
2018-06-30T14:13:24.641Z,5.20
2018-06-30T14:15:54.851Z,5.67
2018-06-30T14:18:25.075Z,4.80
2018-06-30T14:20:55.188Z,4.57
2018-06-30T14:23:25.497Z,4.17
2018-06-30T14:25:55.375Z,4.47
2018-06-30T14:28:25.388Z,4.10
2018-06-30T14:30:55.374Z,4.20
2018-06-30T14:33:25.376Z,4.23
2018-06-30T14:35:55.353Z,4.23
2018-06-30T14:38:25.380Z,3.93
2018-06-30T14:40:55.431Z,4.80
2018-06-30T14:43:25.603Z,4.67
2018-06-30T14:45:55.558Z,5.03
2018-06-30T14:48:26.557Z,4.40
2018-06-30T14:50:56.533Z,9.57
2018-06-30T14:53:26.668Z,18.10
2018-06-30T14:55:56.692Z,5.57
2018-06-30T14:58:26.842Z,16.43
2018-06-30T15:00:56.860Z,7.33
2018-06-30T15:03:26.923Z,5.07
2018-06-30T15:05:57.029Z,5.23
2018-06-30T15:08:27.156Z,5.50
2018-06-30T15:10:57.407Z,5.07
2018-06-30T15:13:27.524Z,5.30
2018-06-30T15:15:57.585Z,5.30
2018-06-30T15:18:27.761Z,5.83
2018-06-30T15:20:57.648Z,5.30
2018-06-30T15:23:27.810Z,5.43
2018-06-30T15:25:57.871Z,5.50
2018-06-30T15:28:28.139Z,5.23
2018-06-30T15:30:58.248Z,5.87
2018-06-30T15:33:28.278Z,5.80
2018-06-30T15:35:58.546Z,5.60
2018-06-30T15:38:28.768Z,5.63
2018-06-30T15:40:58.855Z,5.47
2018-06-30T15:43:28.856Z,5.40
2018-06-30T15:45:58.972Z,5.80
2018-06-30T15:48:29.225Z,6.37
2018-06-30T15:50:59.659Z,6.30
2018-06-30T15:53:29.681Z,6.73
2018-06-30T15:56:01.277Z,12.67
2018-06-30T15:58:31.303Z,11.57
2018-06-30T16:01:01.397Z,10.00
2018-06-30T16:03:31.857Z,9.57
2018-06-30T16:06:02.162Z,9.30
2018-06-30T16:08:32.378Z,8.97
2018-06-30T16:11:02.532Z,9.80
2018-06-30T16:13:32.596Z,15.23
2018-06-30T16:16:02.766Z,13.10
2018-06-30T16:18:32.820Z,12.53
2018-06-30T16:21:09.380Z,11.40
2018-06-30T16:23:39.331Z,12.07
2018-06-30T16:26:09.477Z,12.53
2018-06-30T16:28:39.696Z,12.87
2018-06-30T16:31:09.854Z,13.03
2018-06-30T16:33:39.840Z,15.03
2018-06-30T16:36:10.151Z,14.13
2018-06-30T16:38:40.271Z,14.50
2018-06-30T16:41:10.238Z,13.37
2018-06-30T16:43:40.582Z,10.73
2018-06-30T16:46:10.916Z,10.03
2018-06-30T16:48:41.401Z,8.50
2018-06-30T16:51:12.053Z,8.67
2018-06-30T16:53:42.220Z,8.37
2018-06-30T16:56:12.396Z,8.93
2018-06-30T16:58:42.834Z,9.10
2018-06-30T17:01:12.789Z,8.97
2018-06-30T17:03:42.888Z,8.83
2018-06-30T17:06:13.006Z,8.43
2018-06-30T17:08:43.283Z,8.47
2018-06-30T17:11:13.380Z,8.97
2018-06-30T17:13:43.392Z,8.30
2018-06-30T17:16:13.453Z,8.00
2018-06-30T17:18:43.463Z,8.63
2018-06-30T17:21:13.544Z,8.43
2018-06-30T17:23:43.561Z,8.30
2018-06-30T17:26:13.641Z,8.23
2018-06-30T17:28:43.933Z,7.80
2018-06-30T17:31:14.092Z,8.13
2018-06-30T17:33:44.111Z,8.13
2018-06-30T17:36:14.222Z,7.63
2018-06-30T17:38:44.552Z,8.73
2018-06-30T17:41:14.555Z,8.93
2018-06-30T17:43:44.928Z,8.97
2018-06-30T17:46:14.934Z,9.00
2018-06-30T17:48:45.385Z,9.23
2018-06-30T17:51:15.330Z,8.97
2018-06-30T17:53:45.502Z,9.20
2018-06-30T17:56:15.412Z,9.70
2018-06-30T17:58:45.529Z,9.10
2018-06-30T18:01:15.970Z,9.57
2018-06-30T18:03:46.161Z,9.20
2018-06-30T18:06:16.287Z,9.07
2018-06-30T18:08:46.399Z,9.33
2018-06-30T18:11:16.333Z,9.73
2018-06-30T18:13:46.463Z,9.10
2018-06-30T18:16:16.534Z,9.00
2018-06-30T18:18:46.804Z,9.67
2018-06-30T18:21:16.828Z,9.03
2018-06-30T18:23:47.093Z,9.07
2018-06-30T18:26:17.148Z,8.40
2018-06-30T18:28:47.516Z,8.83
2018-06-30T18:31:17.909Z,8.70
2018-06-30T18:33:48.260Z,8.70
2018-06-30T18:36:18.284Z,11.30
2018-06-30T18:38:48.653Z,10.80
2018-06-30T18:41:18.696Z,12.57
2018-06-30T18:43:48.837Z,14.77
2018-06-30T18:46:18.938Z,13.07
2018-06-30T18:48:49.515Z,11.40
2018-06-30T18:51:19.599Z,11.03
2018-06-30T18:53:49.723Z,10.10
2018-06-30T18:56:20.057Z,9.33
2018-06-30T18:58:50.216Z,10.40
2018-06-30T19:01:20.293Z,11.47
2018-06-30T19:03:50.305Z,12.03
2018-06-30T19:06:20.865Z,12.27
2018-06-30T19:08:50.840Z,12.30
2018-06-30T19:11:20.956Z,14.60
2018-06-30T19:13:51.114Z,13.67
2018-06-30T19:16:21.501Z,24.53
2018-06-30T19:18:51.503Z,23.17
2018-06-30T19:21:22.089Z,25.20
2018-06-30T19:23:52.179Z,26.40
2018-06-30T19:26:22.415Z,30.43
2018-06-30T19:28:52.590Z,23.77
2018-06-30T19:31:22.927Z,19.87
2018-06-30T19:33:53.045Z,20.37
2018-06-30T19:36:23.136Z,21.00
2018-06-30T19:38:53.310Z,19.87
2018-06-30T19:41:23.460Z,17.03
2018-06-30T19:43:53.557Z,16.47
2018-06-30T19:46:23.669Z,19.13
2018-06-30T19:48:53.650Z,18.10
2018-06-30T19:51:23.709Z,17.87
2018-06-30T19:53:54.109Z,23.00
2018-06-30T19:56:24.420Z,25.63
2018-06-30T19:58:54.763Z,24.50
2018-06-30T20:01:24.796Z,25.67
2018-06-30T20:03:54.888Z,27.10
2018-06-30T20:06:24.949Z,25.53
2018-06-30T20:08:55.043Z,22.20
2018-06-30T20:11:25.122Z,19.93
2018-06-30T20:13:55.212Z,17.03
2018-06-30T20:16:25.591Z,15.67
2018-06-30T20:18:55.695Z,14.63
2018-06-30T20:21:25.844Z,22.97
2018-06-30T20:23:56.356Z,21.37
2018-06-30T20:26:26.792Z,22.20
2018-06-30T20:28:56.809Z,21.33
2018-06-30T20:31:26.999Z,17.30
2018-06-30T20:33:57.232Z,15.33
2018-06-30T20:36:27.349Z,15.13
2018-06-30T20:38:57.373Z,19.87
2018-06-30T20:41:27.560Z,18.63
2018-06-30T20:43:57.541Z,15.67
2018-06-30T20:46:27.672Z,20.60
2018-06-30T20:48:57.902Z,18.83
2018-06-30T20:51:28.321Z,12.97
2018-06-30T20:53:58.376Z,16.07
2018-06-30T20:56:28.479Z,17.43
2018-06-30T20:58:58.508Z,17.23
2018-06-30T21:01:28.625Z,12.67
2018-06-30T21:03:58.636Z,13.17
2018-06-30T21:06:28.892Z,11.40
2018-06-30T21:08:58.892Z,11.37
2018-06-30T21:11:29.064Z,10.30
2018-06-30T21:13:59.096Z,9.23
2018-06-30T21:16:29.181Z,9.03
2018-06-30T21:18:59.149Z,8.83
2018-06-30T21:21:29.526Z,12.17
2018-06-30T21:23:59.504Z,16.47
2018-06-30T21:26:29.577Z,12.03
2018-06-30T21:28:59.476Z,10.27
2018-06-30T21:31:29.531Z,9.87
2018-06-30T21:33:59.760Z,10.30
2018-06-30T21:36:29.871Z,10.13
2018-06-30T21:39:00.185Z,10.43
2018-06-30T21:41:30.194Z,10.20
2018-06-30T21:44:00.224Z,10.10
2018-06-30T21:46:30.467Z,10.87
2018-06-30T21:49:00.728Z,14.00
2018-06-30T21:51:30.767Z,15.60
2018-06-30T21:54:00.843Z,20.87
2018-06-30T21:56:30.837Z,20.03
2018-06-30T21:59:01.281Z,21.20
2018-06-30T22:01:31.502Z,12.40
2018-06-30T22:04:01.670Z,14.83
2018-06-30T22:06:31.706Z,21.30
2018-06-30T22:09:01.763Z,18.97
2018-06-30T22:11:31.875Z,18.07
2018-06-30T22:14:01.877Z,13.43
2018-06-30T22:16:32.816Z,16.00
2018-06-30T22:19:02.764Z,19.37
2018-06-30T22:21:32.668Z,19.43
2018-06-30T22:24:02.605Z,23.73
2018-06-30T22:26:32.528Z,24.10
2018-06-30T22:29:02.369Z,18.47
2018-06-30T22:31:32.299Z,18.27
2018-06-30T22:34:02.427Z,18.30
2018-06-30T22:36:32.495Z,17.60
2018-06-30T22:39:02.536Z,17.70
2018-06-30T22:41:32.605Z,18.23
2018-06-30T22:44:02.466Z,18.07
2018-06-30T22:46:32.908Z,17.17
2018-06-30T22:49:02.761Z,12.23
2018-06-30T22:51:33.117Z,13.70
2018-06-30T22:54:02.978Z,13.00
2018-06-30T22:56:32.711Z,12.97
2018-06-30T22:59:02.713Z,12.57
2018-06-30T23:01:33.124Z,12.13
2018-06-30T23:04:03.307Z,12.37
2018-06-30T23:06:33.304Z,12.27
2018-06-30T23:09:03.711Z,12.10
2018-06-30T23:11:33.757Z,11.83
2018-06-30T23:14:04.152Z,12.07
2018-06-30T23:16:34.051Z,11.80
2018-06-30T23:19:04.293Z,10.90
2018-06-30T23:21:34.251Z,10.93
2018-06-30T23:24:04.720Z,11.90
2018-06-30T23:26:34.639Z,11.10
2018-06-30T23:29:04.836Z,11.00
2018-06-30T23:31:34.774Z,11.63
2018-06-30T23:34:04.760Z,12.60
2018-06-30T23:36:34.699Z,13.13
2018-06-30T23:39:07.269Z,16.03
2018-06-30T23:41:37.185Z,17.37
2018-06-30T23:44:07.439Z,15.90
2018-06-30T23:46:37.513Z,16.20
2018-06-30T23:49:07.462Z,15.17
2018-06-30T23:51:37.353Z,14.77
2018-06-30T23:54:07.351Z,13.43
2018-06-30T23:56:37.348Z,15.13
2018-06-30T23:59:07.352Z,13.60
